Versailles, Connecticut
Current Conditions -  °F | °C
As of 1:52 AM on Sunday 23 Nov 2014 (Local Time) from KIJD Reporting Station
Broken Clouds Broken Clouds  
Wind Chill: 39°   Ceiling: 12000
Heat Index: 43°   Visibility: 10mi
Dew Point: 19°   Wind: 6mph
Humidity: 38%   Direction: 200°SSW
Pressure: 30.14"   Gusts: NA
Location:  41.6°N, 72.04°W
Report Text: KIJD 230652Z AUTO 20005KT 10SM FEW045 FEW090 BKN120 06/M07 A3014 RMK AO2 SLP208 T00611072
Loading
Personal Weather Stations






























Interactive Weather Map New forecast layout! Learn more

10-Day Weather Forecast

Advertisements
Track Severe Weather on mobile